createdAt,value
2017-08-05T00:00:06.383Z,21.11
2017-08-05T00:00:47.269Z,21.14
2017-08-05T00:01:28.155Z,21.12
2017-08-05T00:02:09.026Z,21.12
2017-08-05T00:02:49.917Z,21.11
2017-08-05T00:03:30.789Z,21.11
2017-08-05T00:04:11.672Z,21.12
2017-08-05T00:04:52.552Z,21.12
2017-08-05T00:05:33.441Z,21.03
2017-08-05T00:06:14.365Z,20.99
2017-08-05T00:06:55.235Z,21.12
2017-08-05T00:07:36.107Z,21.02
2017-08-05T00:08:16.983Z,21.06
2017-08-05T00:08:57.903Z,21.06
2017-08-05T00:09:38.770Z,21.09
2017-08-05T00:10:19.647Z,21.46
2017-08-05T00:11:00.527Z,21.62
2017-08-05T00:11:41.417Z,22.13
2017-08-05T00:12:22.318Z,21.95
2017-08-05T00:13:03.172Z,21.8
2017-08-05T00:13:44.040Z,21.69
2017-08-05T00:14:24.928Z,21.52
2017-08-05T00:15:05.826Z,21.43
2017-08-05T00:15:46.721Z,21.36
2017-08-05T00:16:27.611Z,21.21
2017-08-05T00:17:08.509Z,21.22
2017-08-05T00:17:49.393Z,21.18
2017-08-05T00:18:30.291Z,21.43
2017-08-05T00:19:11.225Z,21.42
2017-08-05T00:19:52.119Z,21.43
2017-08-05T00:20:33.020Z,21.29
2017-08-05T00:21:13.914Z,21.24
2017-08-05T00:21:54.802Z,21.24
2017-08-05T00:22:35.697Z,21.22
2017-08-05T00:23:16.584Z,21.21
2017-08-05T00:23:57.473Z,21.21
2017-08-05T00:24:38.368Z,21.21
2017-08-05T00:25:19.260Z,21.27
2017-08-05T00:26:00.165Z,21.21
2017-08-05T00:26:41.053Z,21.2
2017-08-05T00:27:21.942Z,21.17
2017-08-05T00:28:02.828Z,21.14
2017-08-05T00:28:43.731Z,21.25
2017-08-05T00:29:24.668Z,21.15
2017-08-05T00:30:05.556Z,21.27
2017-08-05T00:30:46.441Z,21.21
2017-08-05T00:31:27.331Z,21.18
2017-08-05T00:32:08.235Z,21.18
2017-08-05T00:32:49.125Z,21.22
2017-08-05T00:33:30.021Z,21.21
2017-08-05T00:34:10.916Z,21.14
2017-08-05T00:34:51.808Z,21.12
2017-08-05T00:35:32.703Z,21.15
2017-08-05T00:36:13.595Z,21.17
2017-08-05T00:36:54.482Z,21.18
2017-08-05T00:37:35.389Z,21.22
2017-08-05T00:38:16.279Z,21.17
2017-08-05T00:38:57.185Z,21.14
2017-08-05T00:39:38.070Z,21.15
2017-08-05T00:40:18.974Z,21.15
2017-08-05T00:40:59.870Z,21.12
2017-08-05T00:41:40.763Z,21.14
2017-08-05T00:42:21.651Z,21.15
2017-08-05T00:43:02.541Z,21.09
2017-08-05T00:43:43.427Z,21.07
2017-08-05T00:44:24.321Z,21.11
2017-08-05T00:45:05.214Z,21.22
2017-08-05T00:45:46.101Z,21.22
2017-08-05T00:46:27.002Z,21.09
2017-08-05T00:47:07.915Z,21.21
2017-08-05T00:47:48.802Z,21.14
2017-08-05T00:48:29.707Z,21.15
2017-08-05T00:49:10.595Z,21.2
2017-08-05T00:49:51.491Z,21.22
2017-08-05T00:50:32.383Z,21.11
2017-08-05T00:51:13.273Z,21.15
2017-08-05T00:51:54.192Z,21.27
2017-08-05T00:52:35.079Z,21.17
2017-08-05T00:53:15.973Z,21.2
2017-08-05T00:53:56.852Z,21.21
2017-08-05T00:54:37.747Z,21.18
2017-08-05T00:55:18.633Z,21.21
2017-08-05T00:55:59.529Z,21.43
2017-08-05T00:56:40.422Z,21.4
2017-08-05T00:57:21.312Z,21.45
2017-08-05T00:58:02.203Z,21.43
2017-08-05T00:58:43.088Z,21.46
2017-08-05T00:59:23.983Z,21.36
2017-08-05T01:00:04.883Z,21.29
2017-08-05T01:00:45.781Z,21.22
2017-08-05T01:01:26.671Z,21.27
2017-08-05T01:02:07.561Z,21.22
2017-08-05T01:02:48.455Z,21.17
2017-08-05T01:03:29.338Z,21.3
2017-08-05T01:04:10.237Z,21.25
2017-08-05T01:04:51.140Z,21.25
2017-08-05T01:05:32.042Z,21.29
2017-08-05T01:06:12.934Z,21.15
2017-08-05T01:06:53.831Z,21.2
2017-08-05T01:07:34.722Z,21.14
2017-08-05T01:08:15.616Z,21.09
2017-08-05T01:08:56.515Z,21.09
2017-08-05T01:09:37.401Z,21.05
2017-08-05T01:10:18.295Z,21.29
2017-08-05T01:10:59.183Z,21.14
2017-08-05T01:11:40.077Z,21.21
2017-08-05T01:12:20.997Z,21.06
2017-08-05T01:13:01.856Z,21.07
2017-08-05T01:13:42.748Z,21.05
2017-08-05T01:14:23.646Z,21.05
2017-08-05T01:15:04.534Z,20.93
2017-08-05T01:15:45.426Z,20.97
2017-08-05T01:16:26.323Z,20.99
2017-08-05T01:17:07.210Z,20.92
2017-08-05T01:17:48.108Z,21.07
2017-08-05T01:18:29.003Z,21.11
2017-08-05T01:19:09.889Z,21.06
2017-08-05T01:19:50.788Z,20.97
2017-08-05T01:20:31.675Z,20.92
2017-08-05T01:21:12.565Z,20.85
2017-08-05T01:21:53.453Z,20.78
2017-08-05T01:22:34.361Z,20.81
2017-08-05T01:23:15.263Z,20.72
2017-08-05T01:23:56.155Z,20.67
2017-08-05T01:24:37.051Z,20.55
2017-08-05T01:25:17.938Z,20.62
2017-08-05T01:25:58.820Z,20.52
2017-08-05T01:26:39.718Z,20.55
2017-08-05T01:27:20.615Z,20.62
2017-08-05T01:28:01.508Z,20.58
2017-08-05T01:28:42.403Z,20.6
2017-08-05T01:29:23.292Z,20.72
2017-08-05T01:30:04.218Z,20.74
2017-08-05T01:30:45.109Z,20.62
2017-08-05T01:31:26.003Z,20.6
2017-08-05T01:32:06.886Z,20.62
2017-08-05T01:32:47.779Z,20.62
2017-08-05T01:33:28.689Z,20.66
2017-08-05T01:34:09.582Z,20.63
2017-08-05T01:34:50.480Z,20.52
2017-08-05T01:35:31.373Z,20.55
2017-08-05T01:36:12.273Z,20.48
2017-08-05T01:36:53.158Z,20.47
2017-08-05T01:37:34.047Z,20.51
2017-08-05T01:38:14.943Z,20.48
2017-08-05T01:38:55.835Z,20.39
2017-08-05T01:39:36.745Z,20.43
2017-08-05T01:40:17.635Z,20.41
2017-08-05T01:40:58.527Z,20.31
2017-08-05T01:41:39.420Z,20.29
2017-08-05T01:42:20.307Z,20.28
2017-08-05T01:43:01.211Z,20.32
2017-08-05T01:43:42.098Z,20.26
2017-08-05T01:44:23.013Z,20.26
2017-08-05T01:45:03.911Z,20.24
2017-08-05T01:45:44.806Z,20.16
2017-08-05T01:46:25.703Z,20.21
2017-08-05T01:47:06.599Z,20.59
2017-08-05T01:47:47.495Z,20.48
2017-08-05T01:48:28.380Z,20.41
2017-08-05T01:49:09.271Z,20.44
2017-08-05T01:49:50.173Z,20.44
2017-08-05T01:50:31.068Z,20.29
2017-08-05T01:51:11.980Z,20.41
2017-08-05T01:51:52.873Z,20.7
2017-08-05T01:52:33.762Z,20.74
2017-08-05T01:53:14.656Z,20.67
2017-08-05T01:53:55.550Z,20.62
2017-08-05T01:54:36.440Z,20.52
2017-08-05T01:55:17.338Z,20.5
2017-08-05T01:55:58.228Z,20.48
2017-08-05T01:56:39.121Z,20.51
2017-08-05T01:57:20.019Z,20.48
2017-08-05T01:58:00.904Z,20.52
2017-08-05T01:58:41.804Z,20.55
2017-08-05T01:59:22.698Z,20.51
2017-08-05T02:00:03.593Z,20.58
2017-08-05T02:00:44.483Z,20.47
2017-08-05T02:01:25.374Z,20.4
2017-08-05T02:02:06.265Z,20.32
2017-08-05T02:02:47.202Z,20.31
2017-08-05T02:03:28.080Z,20.14
2017-08-05T02:04:08.960Z,20.21
2017-08-05T02:04:49.857Z,20.04
2017-08-05T02:05:30.753Z,20.16
2017-08-05T02:06:11.645Z,20.1
2017-08-05T02:06:52.554Z,20.16
2017-08-05T02:07:33.435Z,20.25
2017-08-05T02:08:14.332Z,20.21
2017-08-05T02:08:55.218Z,20.14
2017-08-05T02:09:36.112Z,20.16
2017-08-05T02:10:17.003Z,20.19
2017-08-05T02:10:57.905Z,20.25
2017-08-05T02:11:38.805Z,20.29
2017-08-05T02:12:19.702Z,20.11
2017-08-05T02:13:00.580Z,20.19
2017-08-05T02:13:41.478Z,20.03
2017-08-05T02:14:22.374Z,20.13
2017-08-05T02:15:03.272Z,20.1
2017-08-05T02:15:44.162Z,20.36
2017-08-05T02:16:25.057Z,20.18
2017-08-05T02:17:05.945Z,20.21
2017-08-05T02:17:46.839Z,20.18
2017-08-05T02:18:27.734Z,20.31
2017-08-05T02:19:08.622Z,20.31
2017-08-05T02:19:49.506Z,20.16
2017-08-05T02:20:30.399Z,20.21
2017-08-05T02:21:11.286Z,20.1
2017-08-05T02:21:52.174Z,20.04
2017-08-05T02:22:33.064Z,20.09
2017-08-05T02:23:13.964Z,20.1
2017-08-05T02:23:54.853Z,20.16
2017-08-05T02:24:35.745Z,20.09
2017-08-05T02:25:16.648Z,20.19
2017-08-05T02:25:57.530Z,20.28
2017-08-05T02:26:38.419Z,20.19
2017-08-05T02:27:19.308Z,20.1
2017-08-05T02:28:00.191Z,20.09
2017-08-05T02:28:41.111Z,20.21
2017-08-05T02:29:22.003Z,20.47
2017-08-05T02:30:02.912Z,20.41
2017-08-05T02:30:43.811Z,20.28
2017-08-05T02:31:24.697Z,20.22
2017-08-05T02:32:05.596Z,20.34
2017-08-05T02:32:46.492Z,20.26
2017-08-05T02:33:27.375Z,20.28
2017-08-05T02:34:08.264Z,20.31
2017-08-05T02:34:49.162Z,20.22
2017-08-05T02:35:30.053Z,20.21
2017-08-05T02:36:10.971Z,20.19
2017-08-05T02:36:51.862Z,20.13
2017-08-05T02:37:32.756Z,20.07
2017-08-05T02:38:13.650Z,20.03
2017-08-05T02:38:54.539Z,20.03
2017-08-05T02:39:35.435Z,19.92
2017-08-05T02:40:16.327Z,19.95
2017-08-05T02:40:57.222Z,19.92
2017-08-05T02:41:38.114Z,19.85
2017-08-05T02:42:19.009Z,19.88
2017-08-05T02:42:59.896Z,19.88
2017-08-05T02:43:40.785Z,19.85
2017-08-05T02:44:21.676Z,19.89
2017-08-05T02:45:02.572Z,19.92
2017-08-05T02:45:43.461Z,19.85
2017-08-05T02:46:24.359Z,19.84
2017-08-05T02:47:05.252Z,19.94
2017-08-05T02:47:46.157Z,19.77
2017-08-05T02:48:27.044Z,19.86
2017-08-05T02:49:07.937Z,19.84
2017-08-05T02:49:48.828Z,19.82
2017-08-05T02:50:29.723Z,19.85
2017-08-05T02:51:10.611Z,19.77
2017-08-05T02:51:51.503Z,20.25
2017-08-05T02:52:32.387Z,20.28
2017-08-05T02:53:13.278Z,20.51
2017-08-05T02:53:54.180Z,20.5
2017-08-05T02:54:35.079Z,20.28
2017-08-05T02:55:15.984Z,20.26
2017-08-05T02:55:56.871Z,20.19
2017-08-05T02:56:37.762Z,20.13
2017-08-05T02:57:18.671Z,20.21
2017-08-05T02:57:59.549Z,20.03
2017-08-05T02:58:40.434Z,20.07
2017-08-05T02:59:21.335Z,20.03
2017-08-05T03:00:02.233Z,20.13
2017-08-05T03:00:43.125Z,20.09
2017-08-05T03:01:24.033Z,20.1
2017-08-05T03:02:04.917Z,19.96
2017-08-05T03:02:45.816Z,19.95
2017-08-05T03:03:26.707Z,20.07
2017-08-05T03:04:07.597Z,19.99
2017-08-05T03:04:48.498Z,19.96
2017-08-05T03:05:29.405Z,19.84
2017-08-05T03:06:10.274Z,20.06
2017-08-05T03:06:51.171Z,20
2017-08-05T03:07:32.060Z,20.28
2017-08-05T03:08:12.953Z,20.19
2017-08-05T03:08:53.849Z,20.13
2017-08-05T03:09:34.740Z,20.1
2017-08-05T03:10:15.631Z,20.07
2017-08-05T03:10:56.524Z,20.02
2017-08-05T03:11:37.418Z,19.84
2017-08-05T03:12:18.314Z,19.88
2017-08-05T03:12:59.214Z,19.84
2017-08-05T03:13:40.107Z,19.74
2017-08-05T03:14:21.015Z,19.76
2017-08-05T03:15:01.890Z,19.71
2017-08-05T03:15:42.779Z,19.64
2017-08-05T03:16:23.677Z,19.58
2017-08-05T03:17:04.575Z,19.62
2017-08-05T03:17:45.477Z,19.54
2017-08-05T03:18:26.368Z,19.55
2017-08-05T03:19:07.265Z,19.45
2017-08-05T03:19:48.154Z,19.51
2017-08-05T03:20:29.045Z,19.48
2017-08-05T03:21:09.939Z,19.33
2017-08-05T03:21:50.832Z,19.3
2017-08-05T03:22:31.738Z,19.22
2017-08-05T03:23:12.628Z,19.39
2017-08-05T03:23:53.515Z,19.3
2017-08-05T03:24:34.416Z,19.31
2017-08-05T03:25:15.302Z,19.31
2017-08-05T03:25:56.197Z,19.18
2017-08-05T03:26:37.089Z,19.21
2017-08-05T03:27:17.974Z,19.21
2017-08-05T03:27:58.857Z,19.22
2017-08-05T03:28:39.748Z,19.12
2017-08-05T03:29:20.638Z,19.27
2017-08-05T03:30:01.524Z,19.19
2017-08-05T03:30:42.420Z,19.31
2017-08-05T03:31:23.315Z,19.31
2017-08-05T03:32:04.241Z,19.27
2017-08-05T03:32:45.128Z,19.26
2017-08-05T03:33:26.029Z,19.21
2017-08-05T03:34:06.921Z,19.15
2017-08-05T03:34:47.822Z,19.3
2017-08-05T03:35:28.706Z,19.27
2017-08-05T03:36:09.599Z,19.29
2017-08-05T03:36:50.495Z,19.26
2017-08-05T03:37:31.376Z,19.29
2017-08-05T03:38:12.269Z,19.31
2017-08-05T03:38:53.175Z,19.29
2017-08-05T03:39:34.036Z,19.24
2017-08-05T03:40:14.935Z,19.22
2017-08-05T03:40:55.835Z,19.15
2017-08-05T03:41:36.710Z,19.21
2017-08-05T03:42:17.621Z,19.14
2017-08-05T03:42:58.504Z,19.15
2017-08-05T03:43:39.387Z,19.09
2017-08-05T03:44:20.268Z,19.09
2017-08-05T03:45:01.169Z,19.08
2017-08-05T03:45:42.067Z,19.09
2017-08-05T03:46:22.941Z,19.11
2017-08-05T03:47:03.830Z,19.07
2017-08-05T03:47:44.737Z,19.08
2017-08-05T03:48:25.616Z,19.09
2017-08-05T03:49:06.505Z,19.14
2017-08-05T03:49:47.391Z,19.15
2017-08-05T03:50:28.271Z,19.15
2017-08-05T03:51:09.151Z,19.08
2017-08-05T03:51:50.068Z,19.11
2017-08-05T03:52:30.946Z,19.36
2017-08-05T03:53:11.834Z,19.45
2017-08-05T03:53:52.713Z,19.33
2017-08-05T03:54:33.619Z,19.31
2017-08-05T03:55:14.504Z,19.12
2017-08-05T03:55:55.417Z,19.79
2017-08-05T03:56:36.303Z,19.76
2017-08-05T03:57:17.176Z,19.7
2017-08-05T03:57:58.069Z,19.64
2017-08-05T03:58:38.975Z,19.55
2017-08-05T03:59:19.852Z,19.66
2017-08-05T04:00:00.746Z,19.59
2017-08-05T04:00:41.631Z,19.59
2017-08-05T04:01:22.509Z,19.4
2017-08-05T04:02:03.392Z,19.41
2017-08-05T04:02:44.324Z,19.45
2017-08-05T04:03:25.206Z,19.33
2017-08-05T04:04:06.096Z,19.29
2017-08-05T04:04:46.996Z,19.3
2017-08-05T04:05:27.883Z,19.45
2017-08-05T04:06:08.818Z,19.47
2017-08-05T04:06:49.698Z,19.48
2017-08-05T04:07:30.592Z,19.49
2017-08-05T04:08:11.486Z,19.47
2017-08-05T04:08:52.378Z,19.49
2017-08-05T04:09:33.269Z,19.39
2017-08-05T04:10:14.160Z,19.3
2017-08-05T04:10:55.044Z,19.26
2017-08-05T04:11:35.936Z,19.24
2017-08-05T04:12:16.826Z,19.34
2017-08-05T04:12:57.721Z,19.26
2017-08-05T04:13:38.607Z,19.24
2017-08-05T04:14:19.497Z,19.29
2017-08-05T04:15:00.380Z,19.29
2017-08-05T04:15:41.280Z,19.31
2017-08-05T04:16:22.180Z,19.16
2017-08-05T04:17:03.070Z,19.26
2017-08-05T04:17:43.967Z,19.31
2017-08-05T04:18:24.858Z,19.22
2017-08-05T04:19:05.746Z,19.26
2017-08-05T04:19:46.646Z,19.47
2017-08-05T04:20:27.545Z,19.59
2017-08-05T04:21:08.426Z,19.59
2017-08-05T04:21:49.326Z,19.58
2017-08-05T04:22:30.222Z,19.45
2017-08-05T04:23:11.108Z,19.41
2017-08-05T04:23:52.006Z,19.48
2017-08-05T04:24:32.892Z,19.37
2017-08-05T04:25:13.789Z,19.4
2017-08-05T04:25:54.685Z,19.31
2017-08-05T04:26:35.577Z,19.34
2017-08-05T04:27:16.463Z,19.31
2017-08-05T04:27:57.361Z,19.34
2017-08-05T04:28:38.255Z,19.3
2017-08-05T04:29:19.160Z,19.39
2017-08-05T04:30:00.086Z,19.3
2017-08-05T04:30:40.932Z,19.27
2017-08-05T04:31:21.828Z,19.39
2017-08-05T04:32:02.721Z,19.39
2017-08-05T04:32:43.601Z,19.36
2017-08-05T04:33:24.492Z,19.34
2017-08-05T04:34:05.403Z,19.34
2017-08-05T04:34:46.284Z,19.31
2017-08-05T04:35:27.186Z,19.45
2017-08-05T04:36:08.114Z,19.47
2017-08-05T04:36:49.006Z,19.45
2017-08-05T04:37:29.912Z,19.45
2017-08-05T04:38:10.793Z,19.48
2017-08-05T04:38:51.692Z,19.47
2017-08-05T04:39:32.584Z,19.48
2017-08-05T04:40:13.456Z,19.47
2017-08-05T04:40:54.352Z,19.49
2017-08-05T04:41:35.247Z,19.44
2017-08-05T04:42:17.296Z,19.39
2017-08-05T04:42:58.187Z,19.4
2017-08-05T04:43:39.075Z,19.47
2017-08-05T04:44:19.970Z,19.49
2017-08-05T04:45:00.868Z,19.47
2017-08-05T04:45:41.740Z,19.48
2017-08-05T04:46:22.633Z,19.47
2017-08-05T04:47:55.903Z,19.45
2017-08-05T04:48:36.790Z,19.49
2017-08-05T04:49:17.689Z,19.45
2017-08-05T04:49:58.583Z,19.49
2017-08-05T04:50:39.473Z,19.45
2017-08-05T04:51:20.386Z,19.45
2017-08-05T04:52:01.248Z,19.44
2017-08-05T04:52:42.141Z,19.47
2017-08-05T04:53:23.034Z,19.55
2017-08-05T04:54:03.927Z,19.48
2017-08-05T04:54:44.823Z,19.54
2017-08-05T04:55:25.729Z,19.54
2017-08-05T04:56:06.619Z,19.63
2017-08-05T04:56:47.521Z,19.64
2017-08-05T04:57:28.403Z,19.56
2017-08-05T04:58:09.288Z,19.73
2017-08-05T04:58:50.172Z,19.7
2017-08-05T04:59:31.062Z,19.94
2017-08-05T05:00:11.942Z,19.94
2017-08-05T05:00:52.853Z,20.09
2017-08-05T05:01:33.753Z,20.06
2017-08-05T05:02:14.634Z,20.03
2017-08-05T05:02:55.525Z,19.99
2017-08-05T05:03:36.415Z,19.92
2017-08-05T05:04:17.374Z,19.94
2017-08-05T05:04:58.258Z,19.85
2017-08-05T05:05:39.144Z,19.88
2017-08-05T05:06:20.035Z,19.91
2017-08-05T05:07:00.926Z,19.91
2017-08-05T05:07:41.805Z,19.89
2017-08-05T05:08:22.697Z,19.89
2017-08-05T05:09:03.599Z,19.81
2017-08-05T05:09:44.476Z,19.84
2017-08-05T05:10:25.368Z,20.07
2017-08-05T05:11:06.257Z,20.07
2017-08-05T05:11:47.137Z,20.16
2017-08-05T05:12:28.017Z,20.18
2017-08-05T05:13:08.927Z,20.14
2017-08-05T05:13:49.813Z,20.24
2017-08-05T05:14:30.694Z,20.31
2017-08-05T05:15:11.584Z,20.31
2017-08-05T05:15:52.468Z,20.41
2017-08-05T05:16:33.347Z,20.37
2017-08-05T05:17:14.229Z,20.29
2017-08-05T05:17:55.116Z,20.25
2017-08-05T05:18:36.017Z,20.28
2017-08-05T05:19:16.906Z,20.34
2017-08-05T05:19:57.808Z,20.25
2017-08-05T05:20:38.694Z,20.25
2017-08-05T05:21:19.576Z,20.21
2017-08-05T05:22:00.477Z,20.16
2017-08-05T05:22:41.369Z,20.21
2017-08-05T05:23:22.251Z,20.14
2017-08-05T05:24:03.137Z,20.07
2017-08-05T05:25:36.415Z,20.11
2017-08-05T05:26:17.302Z,20.14
2017-08-05T05:26:58.174Z,20.21
2017-08-05T05:27:39.053Z,20.24
2017-08-05T05:28:19.932Z,20.26
2017-08-05T05:29:00.830Z,20.36
2017-08-05T05:29:41.722Z,20.31
2017-08-05T05:30:22.600Z,20.34
2017-08-05T05:31:03.497Z,20.39
2017-08-05T05:31:44.397Z,20.7
2017-08-05T05:32:25.285Z,20.72
2017-08-05T05:33:06.205Z,20.88
2017-08-05T05:33:47.098Z,20.97
2017-08-05T05:34:27.989Z,21.2
2017-08-05T05:35:08.897Z,21.02
2017-08-05T05:35:49.757Z,21.27
2017-08-05T05:36:30.671Z,21.21
2017-08-05T05:37:11.570Z,21.2
2017-08-05T05:37:52.442Z,21.15
2017-08-05T05:38:33.354Z,21.22
2017-08-05T05:39:14.251Z,21.2
2017-08-05T05:39:55.106Z,21.24
2017-08-05T05:40:35.983Z,21.35
2017-08-05T05:41:16.876Z,21.4
2017-08-05T05:41:57.764Z,21.43
2017-08-05T05:42:38.641Z,21.69
2017-08-05T05:43:19.525Z,21.62
2017-08-05T05:44:00.415Z,21.64
2017-08-05T05:44:41.320Z,21.6
2017-08-05T05:45:22.188Z,21.54
2017-08-05T05:46:03.090Z,21.52
2017-08-05T05:46:43.973Z,21.46
2017-08-05T05:47:24.860Z,21.58
2017-08-05T05:48:05.761Z,21.62
2017-08-05T05:48:46.655Z,21.72
2017-08-05T05:49:27.545Z,21.46
2017-08-05T05:50:08.438Z,21.91
2017-08-05T05:50:49.319Z,21.89
2017-08-05T05:51:30.206Z,21.72
2017-08-05T05:52:11.097Z,21.62
2017-08-05T05:52:51.990Z,21.66
2017-08-05T05:53:32.875Z,21.67
2017-08-05T05:54:13.776Z,21.91
2017-08-05T05:54:54.689Z,22.04
2017-08-05T05:55:35.580Z,22.07
2017-08-05T05:56:16.473Z,21.95
2017-08-05T05:56:57.366Z,21.95
2017-08-05T05:57:38.255Z,21.69
2017-08-05T05:58:19.148Z,21.6
2017-08-05T05:59:00.091Z,21.4
2017-08-05T05:59:41.028Z,21.35
2017-08-05T06:00:21.920Z,21.29
2017-08-05T06:01:02.814Z,21.27
2017-08-05T06:01:43.779Z,21.25
2017-08-05T06:02:24.601Z,21.25
2017-08-05T06:03:05.498Z,21.22
2017-08-05T06:03:46.382Z,21.27
2017-08-05T06:04:27.273Z,21.17
2017-08-05T06:05:08.171Z,21.54
2017-08-05T06:05:49.056Z,21.55
2017-08-05T06:06:29.975Z,21.61
2017-08-05T06:07:10.886Z,21.51
2017-08-05T06:07:51.782Z,21.48
2017-08-05T06:08:33.018Z,21.45
2017-08-05T06:09:14.204Z,21.39
2017-08-05T06:09:55.167Z,21.45
2017-08-05T06:10:36.051Z,21.4
2017-08-05T06:11:17.021Z,21.35
2017-08-05T06:11:57.902Z,21.18
2017-08-05T06:12:38.812Z,21.17
2017-08-05T06:13:19.701Z,21.18
2017-08-05T06:14:00.614Z,21.27
2017-08-05T06:14:41.515Z,21.24
2017-08-05T06:15:22.404Z,21.46
2017-08-05T06:16:03.302Z,21.7
2017-08-05T06:16:44.180Z,21.57
2017-08-05T06:17:25.091Z,21.62
2017-08-05T06:18:05.983Z,21.7
2017-08-05T06:18:46.888Z,21.69
2017-08-05T06:19:27.761Z,21.77
2017-08-05T06:20:08.685Z,21.95
2017-08-05T06:20:49.580Z,22.26
2017-08-05T06:21:30.475Z,22.2
2017-08-05T06:22:11.362Z,22.39
2017-08-05T06:22:52.263Z,22.51
2017-08-05T06:23:33.165Z,22.63
2017-08-05T06:24:14.053Z,22.72
2017-08-05T06:24:54.958Z,22.69
2017-08-05T06:25:35.856Z,22.75
2017-08-05T06:26:16.737Z,22.63
2017-08-05T06:26:57.842Z,22.55
2017-08-05T06:27:38.633Z,22.57
2017-08-05T06:29:11.936Z,22.55
2017-08-05T06:29:52.833Z,22.69
2017-08-05T06:30:33.721Z,22.69
2017-08-05T06:31:14.605Z,22.7
2017-08-05T06:31:55.496Z,22.7
2017-08-05T06:32:36.397Z,22.39
2017-08-05T06:33:17.291Z,22.48
2017-08-05T06:33:58.199Z,22.55
2017-08-05T06:34:39.093Z,22.59
2017-08-05T06:35:20.000Z,22.39
2017-08-05T06:36:00.933Z,22.59
2017-08-05T06:36:41.823Z,22.76
2017-08-05T06:37:22.737Z,22.72
2017-08-05T06:38:03.633Z,22.72
2017-08-05T06:38:44.518Z,22.69
2017-08-05T06:39:25.414Z,22.81
2017-08-05T06:40:06.308Z,22.43
2017-08-05T06:40:47.203Z,22.75
2017-08-05T06:41:28.099Z,22.94
2017-08-05T06:42:08.997Z,23
2017-08-05T06:42:49.892Z,23.27
2017-08-05T06:43:30.802Z,23.55
2017-08-05T06:44:11.711Z,23.87
2017-08-05T06:44:52.602Z,24.16
2017-08-05T06:45:33.497Z,24.38
2017-08-05T06:46:14.392Z,24.74
2017-08-05T06:46:55.296Z,25.03
2017-08-05T06:47:36.191Z,25.36
2017-08-05T06:48:17.118Z,25.46
2017-08-05T06:48:58.018Z,25.84
2017-08-05T06:49:38.910Z,26.05
2017-08-05T06:50:19.810Z,26.41
2017-08-05T06:51:00.711Z,26.58
2017-08-05T06:51:41.608Z,26.8
2017-08-05T06:52:22.504Z,26.95
2017-08-05T06:53:03.392Z,27.07
2017-08-05T06:53:44.295Z,26.37
2017-08-05T06:54:25.189Z,26.85
2017-08-05T06:55:06.078Z,26.53
2017-08-05T06:55:46.979Z,27.12
2017-08-05T06:56:27.865Z,27.32
2017-08-05T06:57:08.765Z,26.71
2017-08-05T06:57:49.674Z,25.99
2017-08-05T06:58:30.568Z,26.09
2017-08-05T06:59:11.471Z,25.91
2017-08-05T06:59:52.370Z,26.53
2017-08-05T07:00:33.270Z,26.85
2017-08-05T07:01:14.166Z,26.21
2017-08-05T07:01:55.068Z,26.97
2017-08-05T07:02:35.990Z,27.42
2017-08-05T07:03:16.875Z,27.77
2017-08-05T07:03:57.773Z,27.93
2017-08-05T07:04:38.672Z,27.87
2017-08-05T07:05:19.577Z,28.2
2017-08-05T07:06:00.499Z,28.39
2017-08-05T07:06:41.446Z,28.47
2017-08-05T07:07:22.353Z,28.63
2017-08-05T07:08:03.260Z,28.67
2017-08-05T07:08:44.160Z,28.6
2017-08-05T07:09:25.061Z,28.6
2017-08-05T07:10:05.973Z,28.49
2017-08-05T07:10:46.874Z,28.11
2017-08-05T07:11:27.776Z,27.92
2017-08-05T07:12:08.681Z,27.7
2017-08-05T07:12:49.577Z,27.82
2017-08-05T07:13:30.474Z,28.15
2017-08-05T07:14:11.380Z,28.41
2017-08-05T07:14:52.274Z,28.41
2017-08-05T07:15:33.178Z,28.26
2017-08-05T07:16:14.086Z,28.04
2017-08-05T07:16:54.982Z,28
2017-08-05T07:17:35.889Z,28.27
2017-08-05T07:18:16.779Z,28.08
2017-08-05T07:18:57.686Z,28.12
2017-08-05T07:19:38.587Z,27.95
2017-08-05T07:20:19.499Z,27.95
2017-08-05T07:21:00.401Z,28.11
2017-08-05T07:21:41.302Z,27.96
2017-08-05T07:22:22.207Z,27.67
2017-08-05T07:23:03.115Z,27.7
2017-08-05T07:23:44.011Z,27.93
2017-08-05T07:24:24.912Z,27.65
2017-08-05T07:25:05.816Z,27.86
2017-08-05T07:25:46.723Z,27.7
2017-08-05T07:26:27.628Z,27.85
2017-08-05T07:27:08.532Z,28
2017-08-05T07:27:49.445Z,27.83
2017-08-05T07:28:30.339Z,27.86
2017-08-05T07:29:11.244Z,27.6
2017-08-05T07:29:52.148Z,27.3
2017-08-05T07:30:33.058Z,26.47
2017-08-05T07:31:13.961Z,26.13
2017-08-05T07:31:54.869Z,27.2
2017-08-05T07:32:35.781Z,27.87
2017-08-05T07:33:16.686Z,27.68
2017-08-05T07:33:57.596Z,27.7
2017-08-05T07:34:38.490Z,28.38
2017-08-05T07:35:19.396Z,28.79
2017-08-05T07:36:00.298Z,28.78
2017-08-05T07:36:41.201Z,28.85
2017-08-05T07:37:22.100Z,28.98
2017-08-05T07:38:03.006Z,29.01
2017-08-05T07:38:43.907Z,29.05
2017-08-05T07:39:24.823Z,29.13
2017-08-05T07:40:05.836Z,29.12
2017-08-05T07:40:46.669Z,29.24
2017-08-05T07:41:27.577Z,28.89
2017-08-05T07:42:08.489Z,28.93
2017-08-05T07:42:49.393Z,28.86
2017-08-05T07:43:30.307Z,28.88
2017-08-05T07:44:11.251Z,29.22
2017-08-05T07:44:52.153Z,29.2
2017-08-05T07:45:33.062Z,29.27
2017-08-05T07:46:13.963Z,29.66
2017-08-05T07:46:54.875Z,29.49
2017-08-05T07:47:35.783Z,29.31
2017-08-05T07:48:16.690Z,29.31
2017-08-05T07:48:57.599Z,28.67
2017-08-05T07:49:38.511Z,29.23
2017-08-05T07:50:19.417Z,29.61
2017-08-05T07:51:00.318Z,28.05
2017-08-05T07:51:41.241Z,28.35
2017-08-05T07:52:23.043Z,28.94
2017-08-05T07:53:03.926Z,28.98
2017-08-05T07:53:44.841Z,29.49
2017-08-05T07:54:25.748Z,29.82
2017-08-05T07:55:06.663Z,29.98
2017-08-05T07:55:47.566Z,29.86
2017-08-05T07:56:28.463Z,30.05
2017-08-05T07:57:09.387Z,28.66
2017-08-05T07:57:50.290Z,28.81
2017-08-05T07:58:31.205Z,29.1
2017-08-05T07:59:12.119Z,29.41
2017-08-05T07:59:53.041Z,29.44
2017-08-05T08:00:33.923Z,29.53
2017-08-05T08:02:27.670Z,29.71
2017-08-05T08:03:08.587Z,29.72
2017-08-05T08:03:49.488Z,29.29
2017-08-05T08:04:30.380Z,29.5
2017-08-05T08:05:11.298Z,28.86
2017-08-05T08:05:52.197Z,29.17
2017-08-05T08:06:33.114Z,28.37
2017-08-05T08:07:14.016Z,28.78
2017-08-05T08:07:54.916Z,28.81
2017-08-05T08:08:35.849Z,29.34
2017-08-05T08:09:16.784Z,29.78
2017-08-05T08:09:57.675Z,30.12
2017-08-05T08:10:39.065Z,30.21
2017-08-05T08:11:19.976Z,30.21
2017-08-05T08:12:00.884Z,30.57
2017-08-05T08:12:41.790Z,30.78
2017-08-05T08:13:22.703Z,30.66
2017-08-05T08:14:03.604Z,30.68
2017-08-05T08:14:44.511Z,30.83
2017-08-05T08:15:25.413Z,30.8
2017-08-05T08:16:06.319Z,30.9
2017-08-05T08:16:47.239Z,31.07
2017-08-05T08:17:28.150Z,30.83
2017-08-05T08:18:09.072Z,30.81
2017-08-05T08:18:49.969Z,29.81
2017-08-05T08:19:30.887Z,29.76
2017-08-05T08:20:11.794Z,30.08
2017-08-05T08:20:52.687Z,30.03
2017-08-05T08:21:33.616Z,30.68
2017-08-05T08:22:14.521Z,28.79
2017-08-05T08:22:55.417Z,28.97
2017-08-05T08:23:36.322Z,29.76
2017-08-05T08:24:17.221Z,30.35
2017-08-05T08:24:59.018Z,30.69
2017-08-05T08:25:39.902Z,30.9
2017-08-05T08:26:20.809Z,31.18
2017-08-05T08:27:01.713Z,31.39
2017-08-05T08:27:42.623Z,31.47
2017-08-05T08:28:23.569Z,30.24
2017-08-05T08:29:04.487Z,30.59
2017-08-05T08:29:45.400Z,30.05
2017-08-05T08:30:26.295Z,30.7
2017-08-05T08:32:04.738Z,31.39
2017-08-05T08:32:45.661Z,31.61
2017-08-05T08:33:26.636Z,32
2017-08-05T08:34:07.538Z,32.51
2017-08-05T08:34:48.454Z,32.16
2017-08-05T08:35:29.373Z,32.15
2017-08-05T08:37:02.721Z,32.51
2017-08-05T08:37:43.609Z,32.45
2017-08-05T08:38:24.523Z,32.16
2017-08-05T08:39:05.447Z,32.23
2017-08-05T08:39:46.339Z,31.87
2017-08-05T08:40:27.247Z,31.59
2017-08-05T08:41:08.109Z,31.97
2017-08-05T08:41:49.013Z,32.41
2017-08-05T08:42:29.910Z,32.71
2017-08-05T08:43:10.810Z,32.89
2017-08-05T08:43:51.791Z,33.79
2017-08-05T08:44:32.705Z,34.01
2017-08-05T08:45:13.592Z,33.71
2017-08-05T08:45:54.513Z,33.71
2017-08-05T08:46:35.399Z,33.19
2017-08-05T08:48:08.742Z,33.39
2017-08-05T08:48:49.667Z,33.24
2017-08-05T08:49:30.562Z,33.43
2017-08-05T08:50:11.446Z,33.19
2017-08-05T08:50:52.342Z,32.97
2017-08-05T08:51:33.228Z,32.51
2017-08-05T08:52:14.114Z,32.15
2017-08-05T08:52:55.016Z,31.99
2017-08-05T08:53:35.915Z,31.97
2017-08-05T08:54:16.815Z,30.83
2017-08-05T08:54:57.749Z,31.14